ジュノー の空港の天気 - METARとTAF

ジュノー国際空港 ( PAJN / JNU ) - アメリカ アラスカ州ジュノー
飛行場実況気象(Metar)
観測時間12/13 20:53 AKST (12/14 05:53 UTC)
風向・風速東北東 3m/s
視程10km以上
天気現象
少しの雲 雲底高度 240m
全天の8割程度の雲 雲底高度 1280m
全天の8割程度の雲 雲底高度 3350m
気温0.6℃
湿度96%
気圧1001.8hPa
METARPAJN 140553Z 07006KT 10SM FEW008 BKN042 BKN110 01/00 A2959 RMK AO2 SLP018 4/002 60001 T00060000 10017 20006 51017
過去の天気等 Google飛行場航空写真 Wunderground天気予報

過去48時間のMETAR

飛行場予報(TAF)
発表時間: 12/13 20:29 AKST (12/14 05:29 UTC)
予報対象時間: 13日21時 AKST ~ 14日21時 AKST
風向・風速不定 3m/s
視程10km以上
天気現象周辺でしゅう雨
少しの雲 雲底高度 300m
全天の4割程度の雲 雲底高度 760m
全天を覆う雲 雲底高度 1220m
14日0時 AKST ~ 14日3時 AKST に一時的に
視程1610m
天気現象弱いしゅう雪 もや
全天の8割程度の雲 雲底高度 460m
全天を覆う雲 雲底高度 760m
14日6時 AKST から
風向・風速不定 2m/s
視程10km以上
天気現象周辺でしゅう雨
全天の4割程度の雲 雲底高度 760m
全天の8割程度の雲 雲底高度 1220m
14日12時 AKST から
風向・風速不定 2m/s
視程10km以上
なし
PAJN 140529Z 1406/1506 VRB05KT P6SM VCSH FEW010 SCT025 OVC040
TEMPO 1409/1412 1SM -SHSN BR BKN015 OVC025
FM141500 VRB03KT P6SM VCSH SCT025 BKN040
FM142100 VRB03KT P6SM SKC